Time;durP1;ratioP1;P1;durP2;ratioP2;P2;SDS_P1;SDS_P2;PMS_P1;PMS_P2;Temp;Humidity;BMP_temperature;BMP_pressure;BME280_temperature;BME280_humidity;BME280_pressure;Samples;Min_cycle;Max_cycle;Signal;HPM_P1;HPM_P2
2022/06/13 00:01:51;;;;;;;1.00;0.88;;;;;;;16.26;88.68;101112.63;5078869;28;20086;-62
2022/06/13 00:04:17;;;;;;;1.92;0.85;;;;;;;16.10;87.64;101104.78;5066763;28;20475;-61
2022/06/13 00:06:43;;;;;;;2.22;0.63;;;;;;;15.92;89.73;101108.56;5082635;28;20038;-61
2022/06/13 00:09:09;;;;;;;1.27;0.68;;;;;;;16.07;88.86;101110.97;5081160;28;20032;-59
2022/06/13 00:11:36;;;;;;;1.42;0.80;;;;;;;16.15;88.45;101109.88;5071999;28;20368;-61
2022/06/13 00:14:02;;;;;;;1.77;0.80;;;;;;;16.14;89.04;101102.84;5065643;22;20510;-63
2022/06/13 00:16:28;;;;;;;2.03;0.88;;;;;;;16.18;88.27;101109.09;5038216;28;20491;-61
2022/06/13 00:18:55;;;;;;;1.25;1.00;;;;;;;16.12;88.55;101101.69;5007980;28;20041;-63
2022/06/13 00:21:29;;;;;;;3.28;1.20;;;;;;;16.18;88.57;101106.38;5021213;28;20419;-64
2022/06/13 00:23:55;;;;;;;1.20;1.00;;;;;;;16.16;88.90;101108.69;5019152;28;20037;-62
2022/06/13 00:26:24;;;;;;;1.08;0.57;;;;;;;16.12;89.21;101097.03;5023689;28;20029;-60
2022/06/13 00:28:51;;;;;;;2.30;0.95;;;;;;;15.81;90.08;101091.44;5022339;28;20034;-62
2022/06/13 00:31:17;;;;;;;0.65;0.57;;;;;;;15.93;90.34;101088.41;5025782;28;20033;-62
2022/06/13 00:33:43;;;;;;;2.25;0.73;;;;;;;15.97;89.77;101087.25;5027155;28;20049;-63
2022/06/13 00:36:10;;;;;;;2.80;1.10;;;;;;;16.06;89.74;101089.63;5027635;28;20029;-62
2022/06/13 00:38:37;;;;;;;3.53;0.88;;;;;;;16.09;90.24;101088.84;5022204;28;20087;-61
2022/06/13 00:41:11;;;;;;;1.17;0.82;;;;;;;16.04;89.87;101075.66;5023334;28;20461;-63
2022/06/13 00:43:39;;;;;;;2.08;0.70;;;;;;;15.89;89.83;101076.75;5025935;28;20065;-63
2022/06/13 00:46:25;;;;;;;1.13;0.75;;;;;;;15.96;90.11;101074.84;5026514;28;20484;-62
2022/06/13 00:48:56;;;;;;;1.08;0.70;;;;;;;16.02;89.79;101083.41;5020071;28;20049;-62
2022/06/13 00:51:22;;;;;;;2.00;0.93;;;;;;;15.84;90.99;101077.09;5024084;28;20033;-62
2022/06/13 00:53:48;;;;;;;2.05;0.93;;;;;;;15.73;91.26;101074.31;5027202;28;20044;-62
2022/06/13 00:56:18;;;;;;;0.80;0.73;;;;;;;15.81;91.16;101075.91;5022828;28;20030;-62
2022/06/13 00:58:49;;;;;;;1.63;1.02;;;;;;;15.66;91.26;101076.97;5025860;28;20080;-63
2022/06/13 01:01:15;;;;;;;1.40;0.82;;;;;;;15.77;90.88;101072.41;5027177;28;20056;-62
2022/06/13 01:03:43;;;;;;;3.58;1.55;;;;;;;15.67;91.27;101073.09;5026288;28;20904;-62
2022/06/13 01:06:29;;;;;;;1.25;0.82;;;;;;;15.64;90.86;101073.09;5023365;28;20432;-63
2022/06/13 01:08:55;;;;;;;2.92;1.17;;;;;;;15.50;92.22;101078.41;4966687;28;20133;-64
2022/06/13 01:11:24;;;;;;;1.38;0.90;;;;;;;15.21;93.18;101075.44;4979691;28;20038;-62
2022/06/13 01:14:15;;;;;;;0.90;0.52;;;;;;;15.42;93.03;101082.22;4944919;28;20050;-64
2022/06/13 01:16:54;;;;;;;2.33;1.10;;;;;;;15.45;92.89;101087.69;4967712;28;20035;-61
2022/06/13 01:19:52;;;;;;;1.08;0.90;;;;;;;15.65;92.35;101086.28;4983077;28;20058;-64
2022/06/13 01:22:23;;;;;;;1.20;0.63;;;;;;;15.87;91.42;101087.97;4983334;28;20030;-61
2022/06/13 01:25:03;;;;;;;1.10;0.70;;;;;;;15.93;91.18;101083.72;4988071;28;20070;-56
2022/06/13 01:27:29;;;;;;;2.90;0.90;;;;;;;16.02;90.87;101081.47;4985286;28;20042;-58
2022/06/13 01:30:22;;;;;;;1.95;0.90;;;;;;;16.02;90.81;101086.91;4984754;28;20038;-60
2022/06/13 01:33:00;;;;;;;0.60;0.57;;;;;;;16.18;89.93;101087.34;4981433;28;20082;-67
2022/06/13 01:35:44;;;;;;;1.60;0.93;;;;;;;16.27;89.21;101085.06;4984058;28;20089;-65
2022/06/13 01:38:16;;;;;;;2.88;1.90;;;;;;;16.25;88.95;101079.25;4972308;28;20065;-67
2022/06/13 01:40:47;;;;;;;2.72;1.55;;;;;;;16.20;89.42;101071.44;4972180;28;20109;-62
2022/06/13 01:43:18;;;;;;;1.63;1.42;;;;;;;16.18;89.26;101078.44;4983354;28;20030;-63
2022/06/13 01:45:49;;;;;;;1.92;1.00;;;;;;;16.11;89.40;101081.88;5004816;28;20446;-62
2022/06/13 01:48:23;;;;;;;3.30;1.00;;;;;;;16.05;89.41;101082.63;5027291;28;20038;-64
2022/06/13 01:51:16;;;;;;;1.40;0.77;;;;;;;15.81;89.90;101073.22;5022050;28;20037;-59
2022/06/13 01:53:41;;;;;;;5.60;1.17;;;;;;;15.89;89.92;101076.75;5027654;28;20034;-59
2022/06/13 01:56:12;;;;;;;1.52;1.00;;;;;;;15.76;90.00;101075.47;5028096;28;20037;-60
2022/06/13 01:58:44;;;;;;;;;;;;;;;15.43;91.34;101072.94;5029383;28;20059;-54
2022/06/13 02:01:14;;;;;;;0.70;0.65;;;;;;;15.55;90.89;101059.06;5020481;28;20387;-60
2022/06/13 02:03:47;;;;;;;0.70;0.70;;;;;;;15.49;91.07;101068.69;5024632;28;20116;-57
2022/06/13 02:07:15;;;;;;;1.45;0.70;;;;;;;15.27;91.83;101059.63;5023606;28;20025;-63
2022/06/13 02:09:50;;;;;;;2.95;1.10;;;;;;;15.29;91.73;101068.16;5000538;28;20553;-59
2022/06/13 02:12:19;;;;;;;1.30;0.80;;;;;;;15.29;92.26;101070.88;5028022;28;20048;-60
2022/06/13 02:15:00;;;;;;;2.00;0.82;;;;;;;15.21;92.15;101059.16;5023341;28;20029;-67
2022/06/13 02:17:31;;;;;;;4.70;0.70;;;;;;;15.17;92.47;101055.66;5021646;28;20046;-59
2022/06/13 02:20:05;;;;;;;1.95;0.93;;;;;;;15.18;92.62;101057.22;5019555;28;20255;-58
2022/06/13 02:22:55;;;;;;;3.92;1.15;;;;;;;15.12;93.03;101057.91;5028635;28;20029;-57
2022/06/13 02:25:34;;;;;;;3.90;0.90;;;;;;;15.25;92.46;101051.06;5019007;28;20046;-65
2022/06/13 02:28:09;;;;;;;2.17;1.10;;;;;;;15.04;93.00;101048.94;5025227;28;20038;-64
2022/06/13 02:30:42;;;;;;;4.45;1.38;;;;;;;15.09;92.70;101051.34;5018499;28;20130;-60
2022/06/13 02:33:18;;;;;;;2.30;1.08;;;;;;;15.09;92.94;101056.75;5019880;28;20159;-65
2022/06/13 02:35:49;;;;;;;3.75;1.20;;;;;;;15.08;92.31;101052.47;5025234;28;20065;-64
2022/06/13 02:38:21;;;;;;;;;;;;;;;15.17;92.63;101063.03;5027479;28;20080;-58
2022/06/13 02:40:55;;;;;;;3.50;0.82;;;;;;;15.06;92.39;101057.50;5026920;28;19955;-68
2022/06/13 02:43:30;;;;;;;4.53;1.10;;;;;;;15.12;92.38;101060.63;5026551;28;20040;-59
2022/06/13 02:46:02;;;;;;;0.63;0.52;;;;;;;15.18;92.84;101062.63;5024215;28;20288;-63
2022/06/13 02:48:32;;;;;;;1.02;0.68;;;;;;;15.33;92.08;101064.31;5029289;28;20040;-57
2022/06/13 02:51:09;;;;;;;0.82;0.70;;;;;;;15.42;92.02;101072.16;5027446;28;20041;-61
2022/06/13 02:53:39;;;;;;;2.35;1.35;;;;;;;15.45;92.38;101060.53;5042069;28;20030;-59
2022/06/13 02:56:23;;;;;;;1.45;0.82;;;;;;;15.43;92.31;101079.13;5021498;28;20037;-56
2022/06/13 02:59:17;;;;;;;1.52;0.98;;;;;;;15.34;93.07;101071.31;5028087;28;20069;-62
2022/06/13 03:01:50;;;;;;;1.83;0.80;;;;;;;15.57;92.39;101067.59;5027899;28;20443;-66
2022/06/13 03:04:45;;;;;;;1.50;0.88;;;;;;;15.53;93.21;101061.38;5037752;28;20032;-58
2022/06/13 03:07:17;;;;;;;3.22;1.10;;;;;;;15.27;94.50;101056.91;5020716;28;20046;-59
2022/06/13 03:09:51;;;;;;;1.00;0.82;;;;;;;15.34;94.53;101048.81;5041941;28;20029;-60
2022/06/13 03:12:30;;;;;;;1.45;0.98;;;;;;;15.47;94.07;101044.66;5028560;28;20037;-60
2022/06/13 03:15:11;;;;;;;2.70;1.38;;;;;;;15.61;93.79;101043.97;5025567;28;20522;-57
2022/06/13 03:17:50;;;;;;;1.38;0.75;;;;;;;15.75;92.65;101044.84;5024787;28;20037;-60
2022/06/13 03:20:16;;;;;;;1.45;0.77;;;;;;;15.74;91.88;101042.47;5021240;28;20029;-59
2022/06/13 03:23:12;;;;;;;2.00;1.05;;;;;;;15.82;91.53;101039.44;5028198;28;20051;-59
2022/06/13 03:25:47;;;;;;;1.50;1.00;;;;;;;15.70;92.11;101031.59;5023298;28;20045;-60
2022/06/13 03:28:24;;;;;;;1.33;0.65;;;;;;;15.61;92.66;101025.75;5025109;28;20093;-59
2022/06/13 03:31:05;;;;;;;1.25;0.88;;;;;;;15.63;92.46;101023.44;5026327;28;20044;-60
2022/06/13 03:33:40;;;;;;;1.00;0.80;;;;;;;15.60;92.25;101023.41;5016861;28;20034;-60
2022/06/13 03:36:24;;;;;;;1.20;0.90;;;;;;;15.45;92.73;101027.22;5019672;28;20128;-59
2022/06/13 03:38:59;;;;;;;2.75;0.90;;;;;;;15.67;91.58;101028.88;5023016;28;20476;-60
2022/06/13 03:41:32;;;;;;;2.03;1.08;;;;;;;15.62;91.99;101031.97;5021414;28;20026;-59
2022/06/13 03:44:07;;;;;;;1.15;0.80;;;;;;;15.62;92.29;101048.25;5024717;28;20034;-59
2022/06/13 03:46:37;;;;;;;1.85;1.20;;;;;;;15.63;92.51;101053.31;5021165;28;20081;-61
2022/06/13 03:49:29;;;;;;;1.15;0.80;;;;;;;15.65;92.84;101059.13;5026763;28;20045;-60
2022/06/13 03:51:59;;;;;;;4.93;1.83;;;;;;;15.84;91.94;101067.00;5025420;28;20029;-61
2022/06/13 03:54:34;;;;;;;0.77;0.68;;;;;;;15.89;91.63;101068.59;5026505;28;20041;-61
2022/06/13 03:57:06;;;;;;;0.93;0.85;;;;;;;15.75;92.98;101066.56;5036209;28;20045;-62
2022/06/13 03:59:37;;;;;;;1.02;0.90;;;;;;;15.86;92.02;101063.91;5016347;28;20434;-61
2022/06/13 04:02:08;;;;;;;1.90;1.00;;;;;;;15.86;91.84;101047.59;5024694;28;20052;-61
2022/06/13 04:04:39;;;;;;;2.53;0.82;;;;;;;15.93;90.92;101048.41;5014864;28;20037;-63
2022/06/13 04:07:05;;;;;;;3.50;0.55;;;;;;;15.99;91.33;101056.97;5021413;28;20132;-62
2022/06/13 04:09:36;;;;;;;3.72;1.50;;;;;;;16.04;90.69;101057.41;5025508;28;20032;-61
2022/06/13 04:12:41;;;;;;;1.73;1.08;;;;;;;16.02;90.70;101062.44;5021481;28;20090;-62
2022/06/13 04:15:29;;;;;;;5.38;1.35;;;;;;;16.12;89.66;101058.97;5009649;28;20104;-60
2022/06/13 04:18:03;;;;;;;0.68;0.68;;;;;;;16.09;89.78;101057.03;5026972;28;20124;-63
2022/06/13 04:20:40;;;;;;;3.90;1.00;;;;;;;16.12;89.59;101055.50;5019816;28;20108;-62
2022/06/13 04:23:14;;;;;;;1.80;0.80;;;;;;;16.18;90.06;101048.53;5026275;28;20499;-62
2022/06/13 04:25:52;;;;;;;1.48;1.05;;;;;;;16.32;88.93;101058.69;5025180;28;20472;-61
2022/06/13 04:28:46;;;;;;;3.00;0.63;;;;;;;16.24;88.86;101058.66;5019548;28;20112;-62
2022/06/13 04:31:15;;;;;;;0.75;0.73;;;;;;;16.35;88.60;101058.69;5019510;28;20387;-62
2022/06/13 04:34:08;;;;;;;1.70;0.73;;;;;;;16.29;88.55;101060.22;5025141;28;20025;-63
2022/06/13 04:36:35;;;;;;;1.67;0.85;;;;;;;16.41;88.87;101062.59;5017911;28;20403;-60
2022/06/13 04:39:05;;;;;;;2.72;0.88;;;;;;;16.42;88.21;101074.22;5029119;28;20048;-60
2022/06/13 04:41:35;;;;;;;1.25;0.70;;;;;;;16.38;88.39;101059.84;5029668;28;20542;-59
2022/06/13 04:44:04;;;;;;;1.85;1.15;;;;;;;16.37;88.78;101063.75;5029733;28;20484;-58
2022/06/13 04:46:31;;;;;;;2.47;1.00;;;;;;;16.32;88.50;101064.13;5021518;28;20033;-59
2022/06/13 04:49:01;;;;;;;2.05;1.10;;;;;;;16.32;89.23;101062.16;5024625;28;20492;-60
2022/06/13 04:51:35;;;;;;;1.08;0.90;;;;;;;16.58;86.83;101063.84;5023880;28;20037;-60
2022/06/13 04:54:15;;;;;;;1.50;0.98;;;;;;;16.57;86.99;101075.88;5024251;28;20121;-60
2022/06/13 04:56:40;;;;;;;5.95;1.08;;;;;;;16.61;87.29;101076.66;5030061;28;20036;-60
2022/06/13 04:59:13;;;;;;;1.60;1.00;;;;;;;16.51;87.63;101078.19;5028743;28;20389;-58
2022/06/13 05:01:46;;;;;;;2.75;0.80;;;;;;;16.50;87.71;101078.56;5025347;28;20087;-59
2022/06/13 05:04:24;;;;;;;4.57;0.93;;;;;;;16.55;86.81;101078.97;5027853;28;20091;-60
2022/06/13 05:06:51;;;;;;;1.25;0.90;;;;;;;16.55;87.39;101081.69;5029202;28;20033;-60
2022/06/13 05:09:20;;;;;;;0.73;0.65;;;;;;;16.55;87.54;101076.25;5028782;28;20040;-59
2022/06/13 05:11:51;;;;;;;2.55;1.25;;;;;;;16.86;86.58;101082.94;5028333;28;20492;-58
2022/06/13 05:14:23;;;;;;;2.33;1.05;;;;;;;17.31;85.98;101074.00;5022685;28;20068;-60
2022/06/13 05:16:59;;;;;;;;;;;;;;;17.77;84.54;101071.25;5027697;28;20036;-59
2022/06/13 05:19:49;;;;;;;3.35;0.98;;;;;;;18.64;79.88;101066.66;5022329;28;20315;-60
2022/06/13 05:22:15;;;;;;;1.23;0.90;;;;;;;19.24;76.89;101066.97;5024022;28;20041;-58
2022/06/13 05:24:53;;;;;;;1.48;0.88;;;;;;;19.88;74.06;101069.91;5040640;28;20569;-60
2022/06/13 05:27:18;;;;;;;1.70;0.80;;;;;;;20.40;70.48;101071.25;5022679;28;20028;-60
2022/06/13 05:29:44;;;;;;;1.98;0.77;;;;;;;20.75;67.18;101066.50;5026426;28;20424;-60
2022/06/13 05:32:12;;;;;;;0.70;0.55;;;;;;;20.53;67.00;101079.69;5026697;28;20495;-60
2022/06/13 05:34:41;;;;;;;1.10;0.60;;;;;;;20.19;68.11;101076.25;5028274;28;20033;-60
2022/06/13 05:37:08;;;;;;;2.03;0.43;;;;;;;19.87;68.63;101068.38;5020756;28;20037;-60
2022/06/13 05:39:36;;;;;;;3.53;0.68;;;;;;;19.60;70.79;101067.47;5026968;28;20111;-59
2022/06/13 05:42:02;;;;;;;0.63;0.52;;;;;;;19.36;71.57;101072.00;5017755;28;20271;-60
2022/06/13 05:44:28;;;;;;;1.95;0.73;;;;;;;19.05;73.75;101066.78;5026760;28;20113;-61
2022/06/13 05:46:53;;;;;;;2.47;0.52;;;;;;;18.97;73.66;101066.03;5028234;28;20454;-58
2022/06/13 05:49:19;;;;;;;1.55;1.30;;;;;;;18.83;74.36;101066.16;5018801;28;20034;-58
2022/06/13 05:51:45;;;;;;;0.57;0.50;;;;;;;18.83;74.25;101063.41;5026003;28;20040;-60
2022/06/13 05:54:11;;;;;;;1.35;0.85;;;;;;;18.79;74.18;101059.94;5022082;28;20030;-60
2022/06/13 05:56:37;;;;;;;2.92;0.82;;;;;;;18.83;74.04;101068.88;5031000;28;20033;-59
2022/06/13 05:59:03;;;;;;;5.53;1.20;;;;;;;18.71;75.61;101070.13;5023694;28;20025;-60
2022/06/13 06:01:28;;;;;;;1.83;1.10;;;;;;;19.00;77.16;101069.91;5029042;28;20039;-60
2022/06/13 06:03:54;;;;;;;2.92;0.88;;;;;;;19.45;75.77;101064.09;5027815;28;20121;-60
2022/06/13 06:06:22;;;;;;;2.67;0.60;;;;;;;19.86;72.53;101066.81;5023871;28;20029;-58
2022/06/13 06:08:49;;;;;;;1.15;0.80;;;;;;;20.01;72.40;101061.97;5021814;28;20037;-59
2022/06/13 06:11:15;;;;;;;2.45;0.85;;;;;;;20.39;67.02;101066.97;5020537;28;20511;-60
2022/06/13 06:13:40;;;;;;;0.73;0.63;;;;;;;20.36;67.41;101075.25;5025715;28;20035;-60
2022/06/13 06:16:06;;;;;;;1.42;0.75;;;;;;;20.13;67.41;101064.16;5019603;28;20500;-61
2022/06/13 06:18:32;;;;;;;1.45;0.95;;;;;;;19.94;68.64;101071.00;5025425;28;20393;-61
2022/06/13 06:20:58;;;;;;;1.20;0.70;;;;;;;19.94;67.78;101070.25;5018306;28;20458;-61
2022/06/13 06:23:24;;;;;;;2.45;0.40;;;;;;;19.81;67.20;101072.72;5022355;28;20113;-60
2022/06/13 06:25:49;;;;;;;2.40;0.70;;;;;;;20.05;66.27;101073.63;5018747;28;20033;-60
2022/06/13 06:28:22;;;;;;;0.88;0.50;;;;;;;20.27;65.26;101067.53;5025933;28;20432;-60
2022/06/13 06:30:48;;;;;;;0.82;0.52;;;;;;;20.52;64.39;101073.44;5024611;28;20041;-60
2022/06/13 06:33:14;;;;;;;0.63;0.50;;;;;;;20.56;64.40;101070.66;5019956;28;20044;-60
2022/06/13 06:35:40;;;;;;;1.35;0.70;;;;;;;20.78;63.93;101069.16;5027468;28;20029;-60
2022/06/13 06:38:06;;;;;;;1.02;0.57;;;;;;;21.01;62.25;101079.41;5013147;28;20089;-59
2022/06/13 06:40:32;;;;;;;1.27;0.60;;;;;;;21.16;61.15;101087.00;5025645;28;20061;-59
2022/06/13 06:43:18;;;;;;;3.58;0.43;;;;;;;21.19;61.98;101079.91;5019171;28;20067;-59
2022/06/13 06:45:44;;;;;;;2.35;0.90;;;;;;;21.38;61.66;101079.19;5001372;28;20128;-60
2022/06/13 06:48:15;;;;;;;3.85;1.80;;;;;;;21.60;59.09;101083.13;4986772;28;20061;-59
2022/06/13 06:50:43;;;;;;;2.05;0.50;;;;;;;21.73;56.53;101084.06;4998983;28;20039;-60
2022/06/13 06:53:10;;;;;;;0.82;0.40;;;;;;;21.72;55.96;101079.00;5006989;28;20029;-59
2022/06/13 07:01:08;;;;;;;1.35;0.20;;;;;;;22.03;54.64;101085.84;4992787;28;20532;-59
2022/06/13 07:03:34;;;;;;;1.15;0.30;;;;;;;22.06;54.77;101083.06;4993226;28;20085;-61
2022/06/13 07:05:59;;;;;;;0.43;0.40;;;;;;;21.97;53.94;101082.06;4982858;28;20038;-59
2022/06/13 07:08:25;;;;;;;2.08;0.38;;;;;;;21.92;54.21;101075.09;5004017;28;20026;-61
2022/06/13 07:10:51;;;;;;;0.30;0.30;;;;;;;21.76;54.53;101076.94;5004409;28;21602;-61
2022/06/13 07:13:19;;;;;;;0.10;0.10;;;;;;;21.60;56.52;101083.13;4996582;28;20037;-60
2022/06/13 07:15:46;;;;;;;1.27;0.55;;;;;;;21.74;56.74;101069.13;4994058;28;20045;-61
2022/06/13 07:18:11;;;;;;;1.45;0.40;;;;;;;21.97;56.68;101068.34;4983504;28;20042;-60
2022/06/13 07:20:38;;;;;;;2.80;0.52;;;;;;;22.19;55.28;101069.47;4986732;28;20048;-60
2022/06/13 07:23:04;;;;;;;3.50;0.40;;;;;;;22.54;55.20;101074.19;5013197;28;20062;-60
2022/06/13 07:25:31;;;;;;;3.35;0.77;;;;;;;22.58;52.59;101065.91;5022368;28;20546;-59
2022/06/13 07:27:57;;;;;;;1.02;0.50;;;;;;;22.57;52.54;101073.38;5018727;28;20041;-58
2022/06/13 07:30:25;;;;;;;0.43;0.40;;;;;;;22.43;51.84;101065.44;5024947;28;20037;-60
2022/06/13 07:32:53;;;;;;;1.45;0.20;;;;;;;22.26;52.26;101077.56;5023437;28;20306;-61
2022/06/13 07:35:21;;;;;;;0.20;0.20;;;;;;;22.27;52.17;101076.34;5020004;28;20059;-60
2022/06/13 07:40:32;;;;;;;0.30;0.30;;;;;;;22.06;52.35;101082.28;5027970;28;20069;-60
2022/06/13 07:43:01;;;;;;;0.30;0.28;;;;;;;21.82;52.75;101080.78;5017927;28;20072;-60
2022/06/13 07:45:30;;;;;;;0.15;0.15;;;;;;;21.73;53.22;101083.28;5021442;28;20034;-60
2022/06/13 07:47:56;;;;;;;0.40;0.40;;;;;;;21.58;53.60;101080.78;5034878;28;20037;-61
2022/06/13 07:50:24;;;;;;;0.70;0.50;;;;;;;21.46;54.37;101081.41;5018025;28;20033;-59
2022/06/13 07:52:51;;;;;;;0.38;0.30;;;;;;;21.38;55.27;101073.72;5025592;28;20487;-58
2022/06/13 07:55:18;;;;;;;1.15;0.40;;;;;;;21.33;56.08;101082.44;5023499;28;20033;-60
2022/06/13 07:57:45;;;;;;;0.52;0.50;;;;;;;21.31;55.35;101077.34;5018470;28;20426;-61
2022/06/13 08:00:21;;;;;;;0.90;0.43;;;;;;;21.35;55.73;101089.03;5024636;28;20081;-61
2022/06/13 08:02:47;;;;;;;0.80;0.40;;;;;;;21.30;55.71;101088.72;5023626;28;20491;-61
2022/06/13 08:05:13;;;;;;;1.42;0.70;;;;;;;21.01;55.88;101077.47;5017178;28;20431;-61
2022/06/13 08:07:39;;;;;;;0.90;0.40;;;;;;;20.94;56.58;101085.75;5021796;28;20424;-61
2022/06/13 08:10:05;;;;;;;0.75;0.43;;;;;;;20.75;57.94;101083.66;5025053;28;20052;-60
2022/06/13 08:12:31;;;;;;;1.60;0.50;;;;;;;20.56;60.08;101084.34;5026885;28;20054;-60
2022/06/13 08:14:57;;;;;;;0.47;0.32;;;;;;;20.24;61.72;101097.66;5028700;28;20487;-58
2022/06/13 08:17:22;;;;;;;0.88;0.20;;;;;;;20.08;67.18;101100.16;5015856;28;20108;-60
2022/06/13 08:19:50;;;;;;;0.20;0.15;;;;;;;19.97;69.14;101099.50;5024283;28;20393;-60
2022/06/13 08:22:16;;;;;;;0.32;0.28;;;;;;;19.67;70.38;101109.19;5022281;28;20116;-60
2022/06/13 08:24:42;;;;;;;0.35;0.10;;;;;;;19.28;70.55;101108.69;5027955;28;20049;-60
2022/06/13 08:27:09;;;;;;;0.55;0.20;;;;;;;19.09;71.77;101109.25;5026438;28;20113;-60
2022/06/13 08:29:34;;;;;;;1.20;0.30;;;;;;;19.17;74.71;101120.88;5030978;28;20075;-58
2022/06/13 08:32:01;;;;;;;0.52;0.52;;;;;;;19.18;75.65;101138.84;5027873;28;20048;-60
2022/06/13 08:34:27;;;;;;;0.28;0.22;;;;;;;19.10;75.94;101151.78;5028250;28;20056;-61
2022/06/13 08:36:53;;;;;;;1.25;0.40;;;;;;;18.98;75.80;101171.34;5033838;28;20069;-61
2022/06/13 08:39:20;;;;;;;0.22;0.20;;;;;;;18.70;77.09;101155.88;5022380;28;20117;-60
2022/06/13 08:41:56;;;;;;;0.32;0.30;;;;;;;18.14;80.12;101155.28;5033319;28;20044;-60
2022/06/13 08:44:27;;;;;;;0.20;0.10;;;;;;;18.10;81.78;101151.81;5031989;28;20116;-61
2022/06/13 08:47:04;;;;;;;;;;;;;;;17.90;82.51;101154.94;5031215;28;20483;-61
2022/06/13 08:49:44;;;;;;;0.30;0.30;;;;;;;17.92;82.99;101160.75;5028430;28;19920;-60
2022/06/13 08:52:40;;;;;;;0.50;0.20;;;;;;;17.89;83.05;101163.50;5024801;28;20044;-60
2022/06/13 08:55:30;;;;;;;0.20;0.20;;;;;;;17.91;85.80;101159.22;5027576;28;20037;-60
2022/06/13 08:58:09;;;;;;;1.20;0.35;;;;;;;18.25;87.20;101151.38;5017086;28;20128;-59
2022/06/13 09:00:38;;;;;;;0.40;0.20;;;;;;;18.48;86.05;101143.53;5022521;28;20025;-60
2022/06/13 09:03:13;;;;;;;0.20;0.20;;;;;;;19.01;87.12;101137.78;5023198;28;20036;-61
2022/06/13 09:05:56;;;;;;;0.93;0.25;;;;;;;19.46;85.94;101136.69;5022415;28;20030;-59
2022/06/13 09:08:25;;;;;;;0.40;0.20;;;;;;;19.92;82.31;101132.78;5027228;28;20060;-61
2022/06/13 09:11:00;;;;;;;0.38;0.30;;;;;;;20.05;79.31;101136.53;5030127;28;20115;-61
2022/06/13 09:13:28;;;;;;;2.38;0.30;;;;;;;20.30;76.81;101139.81;5024809;28;20037;-60
2022/06/13 09:16:01;;;;;;;0.32;0.30;;;;;;;20.32;78.06;101134.69;5028701;28;20044;-60
2022/06/13 09:18:40;;;;;;;1.15;0.40;;;;;;;20.71;77.19;101129.53;5028037;28;20026;-60
2022/06/13 09:21:21;;;;;;;1.30;0.20;;;;;;;21.04;76.03;101127.91;5030125;28;20040;-61
2022/06/13 09:23:50;;;;;;;;;;;;;;;21.16;76.53;101133.56;5025668;28;20045;-61
2022/06/13 09:26:24;;;;;;;2.42;0.30;;;;;;;21.43;71.97;101126.09;5019980;28;19999;-61
2022/06/13 09:29:09;;;;;;;0.20;0.10;;;;;;;21.63;70.78;101139.06;5029083;28;20037;-60
2022/06/13 09:31:41;;;;;;;0.32;0.20;;;;;;;21.90;66.95;101137.84;5031313;28;20116;-61
2022/06/13 09:34:31;;;;;;;1.45;0.40;;;;;;;22.01;68.19;101130.19;5027294;28;20037;-61
2022/06/13 09:37:02;;;;;;;0.30;0.30;;;;;;;22.15;67.68;101132.66;5021086;28;20033;-61
2022/06/13 09:39:27;;;;;;;0.25;0.13;;;;;;;22.24;68.08;101129.38;5021863;28;20519;-61
2022/06/13 09:42:41;;;;;;;0.20;0.20;;;;;;;22.58;63.98;101124.38;5032893;28;20052;-61
2022/06/13 09:45:21;;;;;;;0.13;0.13;;;;;;;22.89;60.88;101133.88;4987227;28;20521;-61
2022/06/13 09:47:50;;;;;;;0.13;0.13;;;;;;;23.06;61.42;101131.91;5025232;28;20045;-60
2022/06/13 09:50:28;;;;;;;0.10;0.10;;;;;;;23.02;62.98;101142.22;5022537;28;20048;-61
2022/06/13 09:53:22;;;;;;;2.13;0.30;;;;;;;23.38;59.72;101137.47;5025482;28;20115;-61
2022/06/13 09:55:56;;;;;;;0.65;0.10;;;;;;;23.52;59.02;101144.59;5035276;28;20404;-61
2022/06/13 09:58:43;;;;;;;0.32;0.10;;;;;;;23.71;56.18;101149.97;5021610;28;20046;-61
2022/06/13 10:01:17;;;;;;;0.43;0.25;;;;;;;23.76;56.63;101156.94;5040888;28;20120;-60
2022/06/13 10:04:04;;;;;;;0.10;0.10;;;;;;;23.99;56.87;101151.22;5033488;28;20144;-61
2022/06/13 10:06:40;;;;;;;0.82;0.30;;;;;;;24.23;54.20;101152.56;5024224;28;20072;-61
2022/06/13 10:09:06;;;;;;;0.35;0.35;;;;;;;24.05;53.60;101152.25;5032742;28;20038;-59
2022/06/13 10:11:55;;;;;;;0.43;0.20;;;;;;;24.13;53.63;101156.38;5026889;28;20558;-61
2022/06/13 10:14:37;;;;;;;0.30;0.10;;;;;;;23.92;54.35;101154.94;5025143;28;20087;-60
2022/06/13 10:17:24;;;;;;;0.10;0.10;;;;;;;23.79;56.03;101145.09;5026076;28;20484;-60
2022/06/13 10:20:13;;;;;;;0.22;0.10;;;;;;;23.85;54.96;101151.59;5016230;28;20021;-61
2022/06/13 10:22:44;;;;;;;0.03;0.03;;;;;;;23.92;53.94;101138.44;5021096;28;20033;-58
2022/06/13 10:25:31;;;;;;;0.20;0.10;;;;;;;24.18;54.50;101150.31;5027197;28;20029;-60
2022/06/13 10:28:08;;;;;;;0.08;0.08;;;;;;;24.27;52.42;101144.97;5022743;28;20026;-59
2022/06/13 10:30:45;;;;;;;0.10;0.10;;;;;;;24.12;52.97;101144.59;5026384;28;20033;-59
2022/06/13 10:33:14;;;;;;;0.10;0.08;;;;;;;24.24;53.27;101143.06;5018349;28;20236;-59
2022/06/13 10:35:55;;;;;;;0.45;0.05;;;;;;;24.51;52.85;101154.50;5014181;28;20265;-61
2022/06/13 10:38:39;;;;;;;0.22;0.10;;;;;;;24.65;52.35;101143.06;5018440;28;20037;-61
2022/06/13 10:41:06;;;;;;;0.00;0.00;;;;;;;24.65;51.59;101156.06;5016240;28;20400;-62
2022/06/13 10:43:32;;;;;;;0.75;0.10;;;;;;;24.61;49.48;101147.91;5018400;28;20033;-61
2022/06/13 10:45:58;;;;;;;0.10;0.10;;;;;;;24.62;49.23;101151.44;5012534;28;20480;-64
2022/06/13 10:48:44;;;;;;;0.08;0.00;;;;;;;24.76;49.05;101154.56;5013801;28;20033;-61
2022/06/13 10:51:10;;;;;;;0.10;0.00;;;;;;;24.84;47.91;101146.84;5013412;28;20137;-63
2022/06/13 10:53:44;;;;;;;0.20;0.10;;;;;;;24.72;47.13;101145.63;5024856;28;20544;-61
2022/06/13 10:56:20;;;;;;;0.10;0.08;;;;;;;24.71;49.29;101140.53;5018066;28;20040;-60
2022/06/13 10:58:50;;;;;;;0.52;0.10;;;;;;;24.84;50.18;101135.81;5020688;28;20507;-61
2022/06/13 11:01:22;;;;;;;0.55;0.10;;;;;;;25.25;49.27;101134.94;5014177;28;20436;-61
2022/06/13 11:04:04;;;;;;;0.00;0.00;;;;;;;25.56;48.36;101138.66;5026004;28;20029;-60
2022/06/13 11:06:53;;;;;;;0.00;0.00;;;;;;;25.54;46.82;101133.59;5025317;28;20037;-61
2022/06/13 11:09:27;;;;;;;0.65;0.10;;;;;;;25.67;47.19;101137.09;5023564;28;20033;-60
2022/06/13 11:11:55;;;;;;;0.13;0.10;;;;;;;25.54;46.71;101135.56;5021915;28;20034;-61
2022/06/13 11:14:33;;;;;;;0.10;0.10;;;;;;;25.19;46.69;101137.47;5014560;28;20021;-61
2022/06/13 11:22:38;;;;;;;0.13;0.10;;;;;;;23.91;47.86;101142.38;5011632;28;20037;-61
2022/06/13 11:25:16;;;;;;;0.00;0.00;;;;;;;23.94;47.19;101143.50;5008100;28;20096;-60
2022/06/13 11:27:45;;;;;;;0.20;0.10;;;;;;;24.22;48.05;101137.22;5005579;28;20038;-60
2022/06/13 11:30:30;;;;;;;0.17;0.17;;;;;;;24.51;47.51;101139.94;5004614;28;20037;-61
2022/06/13 11:33:02;;;;;;;0.25;0.17;;;;;;;24.91;46.08;101128.13;5008648;28;20030;-62
2022/06/13 11:35:31;;;;;;;0.17;0.00;;;;;;;25.24;45.83;101136.91;5007558;28;20464;-60
2022/06/13 11:38:23;;;;;;;0.20;0.20;;;;;;;25.09;46.84;101132.31;5011246;28;20300;-61
2022/06/13 11:41:28;;;;;;;;;;;;;;;;;;;;;
2022/06/13 11:44:03;;;;;;;0.00;0.00;;;;;;;24.61;45.35;101142.41;5016175;28;20022;-61
2022/06/13 11:46:53;;;;;;;0.57;0.10;;;;;;;24.26;45.66;101154.44;5022444;28;20399;-59
2022/06/13 11:49:26;;;;;;;1.10;0.10;;;;;;;23.71;46.84;101149.22;5021444;28;20033;-60
2022/06/13 11:51:56;;;;;;;0.00;0.00;;;;;;;23.72;46.10;101150.75;5027453;28;20059;-61
2022/06/13 11:54:31;;;;;;;0.55;0.10;;;;;;;23.70;47.36;101145.69;5020434;28;20045;-60
2022/06/13 11:57:18;;;;;;;0.20;0.10;;;;;;;23.92;47.07;101148.66;5035663;28;20117;-61
2022/06/13 11:59:50;;;;;;;0.10;0.10;;;;;;;23.87;45.69;101165.69;5005822;28;20493;-59
2022/06/13 12:02:23;;;;;;;0.10;0.00;;;;;;;23.62;45.06;101160.03;5002594;28;20041;-61
2022/06/13 12:04:48;;;;;;;0.10;0.10;;;;;;;23.25;46.15;101164.06;4992300;28;20040;-61
2022/06/13 12:07:26;;;;;;;0.10;0.10;;;;;;;23.03;47.98;101171.25;4999665;28;20026;-61
2022/06/13 12:09:55;;;;;;;0.55;0.10;;;;;;;22.97;49.15;101173.75;4990563;28;20544;-60